Wetterstation Vordersexau
Wetterdaten: Woche 14.01.13 - 20.01.13 (KW3)
Datum Zeit Temp. A. Feuchte A. Luftdruck Regen Wind Richtung Taupunkt Windchill Windben
14.01.2013 00:00 -0,7 C 87 % 1010,0 hPa 0,0 l/m 0,0 km/h W -2,6 C -0,7 C 0,0 km/h
14.01.2013 01:00 -0,9 C 87 % 1009,8 hPa 0,0 l/m 0,0 km/h NW -2,8 C -0,9 C 0,0 km/h
14.01.2013 02:00 -0,9 C 87 % 1009,6 hPa 0,0 l/m 0,0 km/h NW -2,8 C -0,9 C 0,0 km/h
14.01.2013 03:00 -0,9 C 87 % 1009,5 hPa 0,0 l/m 0,0 km/h NW -2,8 C -0,9 C 0,0 km/h
14.01.2013 04:00 -0,9 C 87 % 1009,1 hPa 0,0 l/m 0,0 km/h NW -2,8 C -0,9 C 0,0 km/h
14.01.2013 05:00 -1,0 C 87 % 1008,7 hPa 0,0 l/m 0,0 km/h NW -2,9 C -1,0 C 0,0 km/h
14.01.2013 06:00 -1,0 C 87 % 1008,1 hPa 0,0 l/m 0,0 km/h NW -2,9 C -1,0 C 0,0 km/h
14.01.2013 07:00 -0,9 C 87 % 1007,6 hPa 0,0 l/m 1,9 km/h N-NW -2,8 C -0,9 C 1,1 km/h
14.01.2013 08:00 -1,0 C 87 % 1010,5 hPa 0,0 l/m 0,0 km/h NW -2,9 C -1,0 C 0,0 km/h
14.01.2013 09:00 -0,9 C 86 % 1011,2 hPa 0,0 l/m 1,3 km/h W-NW -2,9 C -0,9 C 0,7 km/h
14.01.2013 10:00 -0,7 C 87 % 1011,6 hPa 0,0 l/m 0,0 km/h N-NW -2,6 C -0,7 C 0,0 km/h
14.01.2013 11:00 -0,4 C 87 % 1011,8 hPa 0,0 l/m 0,0 km/h NW -2,3 C -0,4 C 0,0 km/h
14.01.2013 12:00 0,3 C 87 % 1011,3 hPa 0,0 l/m 0,0 km/h NW -1,6 C 0,3 C 0,0 km/h
14.01.2013 13:00 0,7 C 86 % 1010,8 hPa 0,0 l/m 1,3 km/h N-NW -1,4 C 0,7 C 0,7 km/h
14.01.2013 14:00 0,9 C 85 % 1010,5 hPa 0,0 l/m 0,0 km/h W-SW -1,3 C 0,9 C 0,0 km/h
14.01.2013 15:00 0,4 C 85 % 1010,6 hPa 0,0 l/m 0,0 km/h NW -1,8 C 0,4 C 0,0 km/h
14.01.2013 16:00 -0,1 C 86 % 1011,0 hPa 0,0 l/m 0,0 km/h W-NW -2,2 C -0,1 C 0,0 km/h
14.01.2013 17:00 -0,4 C 86 % 1011,1 hPa 0,0 l/m 0,0 km/h W-NW -2,4 C -0,4 C 0,0 km/h
14.01.2013 18:00 -0,5 C 86 % 1011,4 hPa 0,0 l/m 0,0 km/h W -2,5 C -0,5 C 0,0 km/h
14.01.2013 19:00 -0,6 C 86 % 1011,4 hPa 0,0 l/m 0,0 km/h W -2,6 C -0,6 C 0,0 km/h
14.01.2013 20:00 -1,1 C 86 % 1010,9 hPa 0,0 l/m 0,0 km/h N-NW -3,1 C -1,1 C 0,0 km/h
14.01.2013 21:00 -1,1 C 87 % 1010,6 hPa 0,0 l/m 0,0 km/h SO -3,0 C -1,1 C 0,0 km/h
14.01.2013 22:00 -1,1 C 87 % 1010,1 hPa 0,0 l/m 0,0 km/h SO -3,0 C -1,1 C 0,0 km/h
14.01.2013 23:00 -1,3 C 87 % 1009,3 hPa 0,0 l/m 0,0 km/h O-SO -3,2 C -1,3 C 0,0 km/h
15.01.2013 00:00 -1,2 C 87 % 1008,6 hPa 0,0 l/m 0,0 km/h O-SO -3,1 C -1,2 C 0,0 km/h
15.01.2013 01:00 -0,9 C 87 % 1007,5 hPa 0,0 l/m 0,0 km/h NO -2,8 C -0,9 C 0,0 km/h
15.01.2013 02:00 -0,6 C 86 % 1007,2 hPa 0,0 l/m 0,0 km/h W -2,6 C -0,6 C 0,0 km/h
15.01.2013 03:00 -0,2 C 87 % 1006,8 hPa 0,0 l/m 7,8 km/h W -2,1 C -1,7 C 4,3 km/h
15.01.2013 04:00 -0,7 C 86 % 1005,5 hPa 0,0 l/m 1,9 km/h W-NW -2,7 C -0,7 C 1,1 km/h
15.01.2013 05:00 -1,8 C 86 % 1004,3 hPa 0,0 l/m 0,0 km/h SO -3,8 C -1,8 C 0,0 km/h
15.01.2013 06:00 -2,8 C 87 % 1003,4 hPa 0,0 l/m 0,0 km/h SO -4,7 C -2,8 C 0,0 km/h
15.01.2013 07:00 -2,7 C 87 % 1002,5 hPa 0,0 l/m 0,0 km/h SO -4,6 C -2,7 C 0,0 km/h
15.01.2013 08:00 -3,1 C 87 % 1002,2 hPa 0,0 l/m 0,0 km/h O-SO -4,9 C -3,1 C 0,0 km/h
15.01.2013 09:00 -1,8 C 86 % 1002,7 hPa 0,0 l/m 0,0 km/h O-SO -3,8 C -1,8 C 0,0 km/h
15.01.2013 10:00 -0,7 C 86 % 1002,9 hPa 0,0 l/m 0,0 km/h SO -2,7 C -0,7 C 0,0 km/h
15.01.2013 11:00 0,6 C 87 % 1003,0 hPa 0,0 l/m 0,0 km/h SO -1,3 C 0,6 C 0,0 km/h
15.01.2013 12:00 1,5 C 86 % 1002,7 hPa 0,0 l/m 0,0 km/h W -0,6 C 1,5 C 0,0 km/h
15.01.2013 13:00 2,0 C 85 % 1002,7 hPa 0,5 l/m 8,4 km/h W-SW -0,3 C 0,1 C 4,7 km/h
15.01.2013 14:00 0,9 C 87 % 1002,8 hPa 0,0 l/m 23,3 km/h W-SW -1,0 C -9,9 C 13,0 km/h
15.01.2013 15:00 1,1 C 86 % 1003,1 hPa 0,0 l/m 9,7 km/h W -1,0 C -2,0 C 5,4 km/h
15.01.2013 16:00 1,0 C 85 % 1003,5 hPa 0,0 l/m 7,8 km/h W-SW -1,2 C -0,4 C 4,3 km/h
15.01.2013 17:00 0,8 C 85 % 1003,7 hPa 0,0 l/m 0,0 km/h W-NW -1,4 C 0,8 C 0,0 km/h
15.01.2013 18:00 0,2 C 85 % 1003,8 hPa 0,0 l/m 0,0 km/h O-SO -2,0 C 0,2 C 0,0 km/h
15.01.2013 19:00 -0,1 C 86 % 1004,0 hPa 0,0 l/m 0,0 km/h S-SO -2,2 C -0,1 C 0,0 km/h
15.01.2013 20:00 0,3 C 85 % 1003,9 hPa 0,0 l/m 0,0 km/h SO -1,9 C 0,3 C 0,0 km/h
15.01.2013 21:00 -0,6 C 87 % 1003,4 hPa 0,0 l/m 0,0 km/h S-SW -2,5 C -0,6 C 0,0 km/h
15.01.2013 22:00 0,4 C 86 % 1003,2 hPa 0,0 l/m 11,7 km/h W -1,7 C -4,3 C 6,5 km/h
15.01.2013 23:00 1,1 C 85 % 1003,3 hPa 0,0 l/m 14,9 km/h W-NW -1,1 C -5,6 C 8,3 km/h
16.01.2013 00:00 0,9 C 85 % 1003,6 hPa 0,0 l/m 9,7 km/h W-NW -1,3 C -2,2 C 5,4 km/h
16.01.2013 01:00 0,5 C 85 % 1004,6 hPa 0,0 l/m 1,3 km/h W -1,7 C 0,5 C 0,7 km/h
16.01.2013 02:00 0,2 C 84 % 1004,8 hPa 0,0 l/m 1,9 km/h NW -2,2 C 0,2 C 1,1 km/h
16.01.2013 03:00 -0,6 C 87 % 1005,3 hPa 0,0 l/m 0,0 km/h N-NO -2,5 C -0,6 C 0,0 km/h
16.01.2013 04:00 -1,5 C 86 % 1005,3 hPa 0,0 l/m 0,0 km/h N -3,5 C -1,5 C 0,0 km/h
16.01.2013 05:00 -2,1 C 87 % 1005,6 hPa 0,0 l/m 0,0 km/h N -4,0 C -2,1 C 0,0 km/h
16.01.2013 06:00 -2,6 C 85 % 1006,0 hPa 0,0 l/m 0,0 km/h N-NO -4,8 C -2,6 C 0,0 km/h
16.01.2013 07:00 -2,9 C 86 % 1006,0 hPa 0,0 l/m 0,0 km/h NO -4,9 C -2,9 C 0,0 km/h
16.01.2013 08:00 -3,1 C 85 % 1005,9 hPa 0,0 l/m 0,0 km/h NO -5,3 C -3,1 C 0,0 km/h
16.01.2013 09:00 -2,7 C 84 % 1006,2 hPa 0,0 l/m 0,0 km/h O-SO -5,0 C -2,7 C 0,0 km/h
16.01.2013 10:00 -1,1 C 83 % 1005,9 hPa 0,0 l/m 0,0 km/h O-SO -3,6 C -1,1 C 0,0 km/h
16.01.2013 11:00 -0,9 C 80 % 1006,0 hPa 0,0 l/m 0,0 km/h O-SO -3,9 C -0,9 C 0,0 km/h
16.01.2013 12:00 -0,2 C 77 % 1005,5 hPa 0,0 l/m 0,0 km/h O-SO -3,7 C -0,2 C 0,0 km/h
16.01.2013 13:00 1,0 C 73 % 1004,8 hPa 0,0 l/m 0,0 km/h O-SO -3,3 C 1,0 C 0,0 km/h
16.01.2013 14:00 1,1 C 66 % 1004,5 hPa 0,0 l/m 0,0 km/h NO -4,5 C 1,1 C 0,0 km/h
16.01.2013 15:00 -0,2 C 70 % 1004,8 hPa 0,0 l/m 0,0 km/h SO -5,0 C -0,2 C 0,0 km/h
16.01.2013 16:00 1,5 C 66 % 1004,9 hPa 0,0 l/m 0,0 km/h O-NO -4,1 C 1,5 C 0,0 km/h
16.01.2013 17:00 -4,2 C 73 % 1005,4 hPa 0,0 l/m 0,0 km/h SO -8,3 C -4,2 C 0,0 km/h
16.01.2013 18:00 -7,5 C 79 % 1005,8 hPa 0,0 l/m 0,0 km/h SO -10,5 C -7,5 C 0,0 km/h
16.01.2013 19:00 -8,4 C 83 % 1006,4 hPa 0,0 l/m 0,0 km/h SO -10,8 C -8,4 C 0,0 km/h
16.01.2013 20:00 -8,2 C 84 % 1006,6 hPa 0,0 l/m 0,0 km/h SO -10,4 C -8,2 C 0,0 km/h
16.01.2013 21:00 -7,6 C 86 % 1007,0 hPa 0,0 l/m 0,0 km/h SO -9,5 C -7,6 C 0,0 km/h
16.01.2013 22:00 -6,2 C 86 % 1007,2 hPa 0,0 l/m 0,0 km/h O-SO -8,1 C -6,2 C 0,0 km/h
16.01.2013 23:00 -5,3 C 86 % 1007,7 hPa 0,0 l/m 0,0 km/h O-SO -7,3 C -5,3 C 0,0 km/h
17.01.2013 00:00 -5,1 C 87 % 1008,0 hPa 0,0 l/m 0,0 km/h O-SO -6,9 C -5,1 C 0,0 km/h
17.01.2013 01:00 -4,7 C 87 % 1008,3 hPa 0,0 l/m 0,0 km/h O-SO -6,5 C -4,7 C 0,0 km/h
17.01.2013 02:00 -4,5 C 87 % 1008,5 hPa 0,0 l/m 0,0 km/h O-SO -6,3 C -4,5 C 0,0 km/h
17.01.2013 03:00 -4,4 C 87 % 1008,8 hPa 0,0 l/m 0,0 km/h O-SO -6,2 C -4,4 C 0,0 km/h
17.01.2013 04:00 -4,1 C 87 % 1008,8 hPa 0,0 l/m 0,0 km/h O-SO -5,9 C -4,1 C 0,0 km/h
17.01.2013 05:00 -3,8 C 87 % 1009,2 hPa 0,0 l/m 0,0 km/h O-SO -5,6 C -3,8 C 0,0 km/h
17.01.2013 06:00 -3,7 C 87 % 1009,5 hPa 0,0 l/m 0,0 km/h O-SO -5,5 C -3,7 C 0,0 km/h
17.01.2013 07:00 -3,7 C 86 % 1009,8 hPa 0,0 l/m 0,0 km/h O-SO -5,7 C -3,7 C 0,0 km/h
17.01.2013 08:00 -3,5 C 86 % 1010,4 hPa 0,0 l/m 0,0 km/h O -5,5 C -3,5 C 0,0 km/h
17.01.2013 09:00 -3,1 C 86 % 1011,2 hPa 0,0 l/m 0,0 km/h NO -5,1 C -3,1 C 0,0 km/h
17.01.2013 10:00 -2,1 C 86 % 1011,6 hPa 0,0 l/m 0,0 km/h N-NO -4,1 C -2,1 C 0,0 km/h
17.01.2013 11:00 -1,4 C 87 % 1011,7 hPa 0,0 l/m 0,0 km/h N-NO -3,3 C -1,4 C 0,0 km/h
17.01.2013 12:00 -0,1 C 85 % 1011,3 hPa 0,0 l/m 0,0 km/h NO -2,3 C -0,1 C 0,0 km/h
17.01.2013 13:00 -0,7 C 81 % 1011,1 hPa 0,0 l/m 0,0 km/h N-NO -3,5 C -0,7 C 0,0 km/h
17.01.2013 14:00 -0,4 C 79 % 1011,2 hPa 0,0 l/m 0,0 km/h N-NW -3,6 C -0,4 C 0,0 km/h
17.01.2013 15:00 -1,8 C 83 % 1011,6 hPa 0,0 l/m 0,0 km/h N -4,3 C -1,8 C 0,0 km/h
17.01.2013 16:00 -2,1 C 84 % 1011,9 hPa 0,0 l/m 0,0 km/h N -4,4 C -2,1 C 0,0 km/h
17.01.2013 17:00 -2,9 C 86 % 1012,0 hPa 0,0 l/m 0,0 km/h W-NW -4,9 C -2,9 C 0,0 km/h
17.01.2013 18:00 -3,3 C 87 % 1012,2 hPa 0,0 l/m 0,0 km/h W-NW -5,1 C -3,3 C 0,0 km/h
17.01.2013 19:00 -3,4 C 87 % 1012,5 hPa 0,0 l/m 0,0 km/h W-NW -5,2 C -3,4 C 0,0 km/h
17.01.2013 20:00 -3,3 C 87 % 1012,5 hPa 0,0 l/m 0,0 km/h W-NW -5,1 C -3,3 C 0,0 km/h
17.01.2013 21:00 -3,4 C 87 % 1012,6 hPa 0,0 l/m 0,0 km/h W-NW -5,2 C -3,4 C 0,0 km/h
17.01.2013 22:00 -3,4 C 87 % 1012,2 hPa 0,0 l/m 0,0 km/h W-NW -5,2 C -3,4 C 0,0 km/h
17.01.2013 23:00 -3,6 C 87 % 1011,6 hPa 0,0 l/m 0,0 km/h W-NW -5,4 C -3,6 C 0,0 km/h
18.01.2013 00:00 -3,6 C 87 % 1011,2 hPa 0,0 l/m 0,0 km/h W-NW -5,4 C -3,6 C 0,0 km/h
18.01.2013 01:00 -3,5 C 86 % 1010,9 hPa 0,0 l/m 0,0 km/h W-NW -5,5 C -3,5 C 0,0 km/h
18.01.2013 02:00 -3,5 C 86 % 1010,6 hPa 0,0 l/m 0,0 km/h W-NW -5,5 C -3,5 C 0,0 km/h
18.01.2013 03:00 -3,4 C 86 % 1010,1 hPa 0,0 l/m 0,0 km/h W-NW -5,4 C -3,4 C 0,0 km/h
18.01.2013 04:00 -3,5 C 86 % 1009,6 hPa 0,0 l/m 0,0 km/h W-NW -5,5 C -3,5 C 0,0 km/h
18.01.2013 05:00 -3,6 C 86 % 1008,7 hPa 0,0 l/m 0,0 km/h N-NW -5,6 C -3,6 C 0,0 km/h
18.01.2013 06:00 -4,1 C 86 % 1008,1 hPa 0,0 l/m 0,0 km/h W-NW -6,1 C -4,1 C 0,0 km/h
18.01.2013 07:00 -4,2 C 86 % 1007,9 hPa 0,0 l/m 0,0 km/h W-NW -6,2 C -4,2 C 0,0 km/h
18.01.2013 08:00 -4,2 C 86 % 1008,0 hPa 0,0 l/m 0,0 km/h W-NW -6,2 C -4,2 C 0,0 km/h
18.01.2013 09:00 -3,1 C 85 % 1007,8 hPa 0,0 l/m 0,0 km/h NW -5,3 C -3,1 C 0,0 km/h
18.01.2013 10:00 -1,7 C 86 % 1007,1 hPa 0,0 l/m 0,0 km/h N-NW -3,7 C -1,7 C 0,0 km/h
18.01.2013 11:00 2,6 C 81 % 1006,0 hPa 0,0 l/m 0,0 km/h W-NW -0,3 C 2,6 C 0,0 km/h
18.01.2013 12:00 1,5 C 77 % 1005,4 hPa 0,0 l/m 0,0 km/h W -2,1 C 1,5 C 0,0 km/h
18.01.2013 13:00 1,3 C 77 % 1004,4 hPa 0,0 l/m 2,6 km/h W -2,3 C 1,3 C 1,4 km/h
18.01.2013 14:00 0,9 C 78 % 1003,7 hPa 0,0 l/m 0,0 km/h W-NW -2,5 C 0,9 C 0,0 km/h
18.01.2013 15:00 0,5 C 78 % 1003,3 hPa 0,0 l/m 0,0 km/h W -2,9 C 0,5 C 0,0 km/h
18.01.2013 16:00 0,0 C 79 % 1002,4 hPa 0,5 l/m 0,0 km/h W-NW -3,2 C 0,0 C 0,0 km/h
18.01.2013 17:00 -3,5 C 82 % 1001,9 hPa 0,0 l/m 0,0 km/h O-SO -6,1 C -3,5 C 0,0 km/h
18.01.2013 18:00 -5,1 C 85 % 1001,6 hPa 0,0 l/m 0,0 km/h SO -7,2 C -5,1 C 0,0 km/h
18.01.2013 19:00 -6,8 C 86 % 1000,7 hPa 0,0 l/m 0,0 km/h S-SO -8,7 C -6,8 C 0,0 km/h
18.01.2013 20:00 -7,0 C 87 % 999,6 hPa 0,0 l/m 0,0 km/h O-NO -8,8 C -7,0 C 0,0 km/h
18.01.2013 21:00 -8,1 C 87 % 999,0 hPa 0,0 l/m 0,0 km/h SO -9,9 C -8,1 C 0,0 km/h
18.01.2013 22:00 -7,1 C 87 % 998,8 hPa 0,0 l/m 0,0 km/h O-SO -8,9 C -7,1 C 0,0 km/h
18.01.2013 23:00 -6,1 C 87 % 997,9 hPa 0,0 l/m 0,0 km/h S-SO -7,9 C -6,1 C 0,0 km/h
19.01.2013 00:00 -5,2 C 87 % 996,9 hPa 0,0 l/m 0,0 km/h S-SO -7,0 C -5,2 C 0,0 km/h
19.01.2013 01:00 -4,7 C 87 % 996,6 hPa 0,0 l/m 0,0 km/h O-SO -6,5 C -4,7 C 0,0 km/h
19.01.2013 02:00 -4,6 C 87 % 996,0 hPa 0,0 l/m 0,0 km/h O-NO -6,4 C -4,6 C 0,0 km/h
19.01.2013 03:00 -4,2 C 87 % 995,7 hPa 0,0 l/m 0,0 km/h O -6,0 C -4,2 C 0,0 km/h
19.01.2013 04:00 -3,9 C 87 % 994,5 hPa 0,0 l/m 0,0 km/h NO -5,7 C -3,9 C 0,0 km/h
19.01.2013 05:00 -3,7 C 87 % 994,3 hPa 0,0 l/m 0,0 km/h O-NO -5,5 C -3,7 C 0,0 km/h
19.01.2013 06:00 -3,9 C 87 % 993,8 hPa 0,0 l/m 0,0 km/h NO -5,7 C -3,9 C 0,0 km/h
19.01.2013 07:00 -3,9 C 87 % 994,0 hPa 0,0 l/m 0,0 km/h N-NO -5,7 C -3,9 C 0,0 km/h
19.01.2013 08:00 -3,9 C 87 % 993,3 hPa 0,0 l/m 0,0 km/h N-NO -5,7 C -3,9 C 0,0 km/h
19.01.2013 09:00 -3,3 C 87 % 993,3 hPa 0,0 l/m 0,0 km/h N-NO -5,1 C -3,3 C 0,0 km/h
19.01.2013 10:00 -1,3 C 87 % 993,0 hPa 0,0 l/m 0,0 km/h W-NW -3,2 C -1,3 C 0,0 km/h
19.01.2013 11:00 2,8 C 78 % 993,0 hPa 0,0 l/m 0,0 km/h W-NW -0,6 C 2,8 C 0,0 km/h
19.01.2013 12:00 1,3 C 77 % 992,5 hPa 0,0 l/m 0,0 km/h NW -2,3 C 1,3 C 0,0 km/h
19.01.2013 13:00 1,4 C 75 % 991,8 hPa 0,0 l/m 2,6 km/h N-NW -2,5 C 1,4 C 1,4 km/h
19.01.2013 14:00 1,5 C 76 % 991,2 hPa 0,0 l/m 0,0 km/h N -2,3 C 1,5 C 0,0 km/h
19.01.2013 15:00 0,6 C 78 % 990,8 hPa 0,0 l/m 0,0 km/h N-NW -2,8 C 0,6 C 0,0 km/h
19.01.2013 16:00 -0,2 C 80 % 990,6 hPa 0,0 l/m 0,0 km/h W-NW -3,2 C -0,2 C 0,0 km/h
19.01.2013 17:00 -1,7 C 84 % 990,7 hPa 0,0 l/m 0,0 km/h W -4,0 C -1,7 C 0,0 km/h
19.01.2013 18:00 -2,4 C 86 % 990,6 hPa 0,0 l/m 0,0 km/h W-NW -4,4 C -2,4 C 0,0 km/h
19.01.2013 19:00 -2,1 C 87 % 990,9 hPa 0,0 l/m 0,0 km/h W -4,0 C -2,1 C 0,0 km/h
19.01.2013 20:00 -1,9 C 86 % 991,3 hPa 0,0 l/m 0,0 km/h W-NW -3,9 C -1,9 C 0,0 km/h
19.01.2013 21:00 -1,9 C 86 % 990,4 hPa 0,0 l/m 0,0 km/h NW -3,9 C -1,9 C 0,0 km/h
19.01.2013 22:00 -1,7 C 87 % 990,3 hPa 0,0 l/m 1,3 km/h NW -3,6 C -1,7 C 0,7 km/h
19.01.2013 23:00 -1,6 C 87 % 990,2 hPa 0,0 l/m 0,0 km/h N-NW -3,5 C -1,6 C 0,0 km/h
20.01.2013 00:00 -1,6 C 86 % 989,9 hPa 0,0 l/m 0,0 km/h N-NW -3,6 C -1,6 C 0,0 km/h
20.01.2013 01:00 -1,4 C 85 % 989,3 hPa 0,0 l/m 0,0 km/h N-NW -3,6 C -1,4 C 0,0 km/h
20.01.2013 02:00 -1,4 C 85 % 988,8 hPa 0,0 l/m 0,0 km/h NW -3,6 C -1,4 C 0,0 km/h
20.01.2013 03:00 -1,4 C 84 % 988,7 hPa 0,0 l/m 1,3 km/h NW -3,7 C -1,4 C 0,7 km/h
20.01.2013 04:00 -1,6 C 84 % 988,8 hPa 0,0 l/m 0,0 km/h NW -3,9 C -1,6 C 0,0 km/h
20.01.2013 05:00 -1,6 C 84 % 988,8 hPa 0,0 l/m 1,3 km/h NW -3,9 C -1,6 C 0,7 km/h
20.01.2013 06:00 -1,8 C 84 % 989,9 hPa 0,0 l/m 1,3 km/h NW -4,1 C -1,8 C 0,7 km/h
20.01.2013 07:00 -1,8 C 84 % 988,8 hPa 0,0 l/m 0,0 km/h W-NW -4,1 C -1,8 C 0,0 km/h
20.01.2013 08:00 -1,8 C 83 % 989,7 hPa 0,0 l/m 0,0 km/h W-NW -4,3 C -1,8 C 0,0 km/h
20.01.2013 09:00 -1,4 C 83 % 989,7 hPa 0,0 l/m 0,0 km/h N-NW -3,9 C -1,4 C 0,0 km/h
20.01.2013 10:00 -1,3 C 83 % 990,4 hPa 0,0 l/m 0,0 km/h W -3,8 C -1,3 C 0,0 km/h
20.01.2013 11:00 -0,8 C 84 % 991,4 hPa 0,0 l/m 0,0 km/h NW -3,2 C -0,8 C 0,0 km/h
20.01.2013 12:00 -0,6 C 85 % 990,9 hPa 0,0 l/m 0,0 km/h N-NO -2,8 C -0,6 C 0,0 km/h
20.01.2013 13:00 1,4 C 84 % 990,6 hPa 0,0 l/m 0,0 km/h N-NW -1,0 C 1,4 C 0,0 km/h
20.01.2013 14:00 0,5 C 87 % 989,7 hPa 0,0 l/m 0,0 km/h NW -1,4 C 0,5 C 0,0 km/h
20.01.2013 15:00 0,3 C 87 % 990,6 hPa 0,0 l/m 1,9 km/h N-NW -1,6 C 0,3 C 1,1 km/h
20.01.2013 16:00 -0,2 C 86 % 990,5 hPa 0,0 l/m 0,0 km/h N-NO -2,3 C -0,2 C 0,0 km/h
20.01.2013 17:00 -0,7 C 86 % 990,7 hPa 0,0 l/m 0,0 km/h N-NO -2,7 C -0,7 C 0,0 km/h
20.01.2013 18:00 -0,7 C 85 % 991,0 hPa 0,0 l/m 0,0 km/h W -2,9 C -0,7 C 0,0 km/h
20.01.2013 19:00 -0,6 C 84 % 992,0 hPa 0,0 l/m 0,0 km/h W -3,0 C -0,6 C 0,0 km/h
20.01.2013 20:00 -0,5 C 84 % 992,7 hPa 0,0 l/m 0,0 km/h W -2,9 C -0,5 C 0,0 km/h
20.01.2013 21:00 -0,2 C 83 % 993,2 hPa 0,0 l/m 0,0 km/h W -2,7 C -0,2 C 0,0 km/h
20.01.2013 22:00 -0,1 C 83 % 993,9 hPa 0,0 l/m 0,0 km/h W -2,6 C -0,1 C 0,0 km/h
20.01.2013 23:00 0,4 C 82 % 994,5 hPa 0,0 l/m 2,6 km/h W-NW -2,3 C 0,4 C 1,4 km/h
Min-Datum _ 16.01.13 16.01.13 20.01.13 - 14.01.13 - 16.01.13 15.01.13 14.01.13
_ Min-Zeit 19:19 14:19 03:19 - 00:19 - 19:19 14:19 00:19
Minimum _ -8,4 C 66 % 988,7 hPa - 0,0 km/h - -10,8 C -9,9 C 0,0 km/h
Max-Datum _ 19.01.13 14.01.13 17.01.13 15.01.13 15.01.13 - 15.01.13 19.01.13 15.01.13
_ Max-Zeit 11:19 00:19 21:19 13:19 14:19 - 13:19 11:19 14:19
Maximum _ 2,8 C 87 % 1012,6 hPa 0,5 l/m 23,3 km/h
W-SW
- -0,3 C 2,8 C 13,0 km/h
W-SW
Durchschnitt _ -1,8 C 85 % 1002,8 hPa #1,0 l/m 0,7 km/h W-NW -4,0 C -2,0 C 0,4 km/h
www.sexauwetter.de